Time;durP1;ratioP1;P1;durP2;ratioP2;P2;SDS_P1;SDS_P2;PMS_P1;PMS_P2;Temp;Humidity;BMP_temperature;BMP_pressure;BME280_temperature;BME280_humidity;BME280_pressure;Samples;Min_cycle;Max_cycle;Signal;HPM_P1;HPM_P2
2022/04/25 00:02:12;;;;;;;20.00;11.88;;;8.20;99.90;;;;;;5033753;28;20123;-70
2022/04/25 00:04:38;;;;;;;19.30;11.82;;;8.20;99.90;;;;;;5036033;28;20120;-70
2022/04/25 00:07:04;;;;;;;20.85;12.07;;;8.10;99.90;;;;;;5066707;28;20111;-70
2022/04/25 00:09:30;;;;;;;21.05;13.13;;;8.10;99.90;;;;;;5054834;28;20036;-70
2022/04/25 00:11:58;;;;;;;19.65;10.98;;;8.10;99.90;;;;;;5040235;28;20128;-71
2022/04/25 00:14:24;;;;;;;21.75;12.45;;;8.10;99.90;;;;;;5036966;28;20132;-70
2022/04/25 00:16:55;;;;;;;21.52;12.98;;;8.10;99.90;;;;;;5051206;28;20488;-70
2022/04/25 00:19:22;;;;;;;22.58;13.65;;;8.10;99.90;;;;;;5032290;28;20041;-70
2022/04/25 00:21:47;;;;;;;21.60;13.20;;;8.10;99.90;;;;;;5043876;28;20041;-71
2022/04/25 00:24:13;;;;;;;20.13;12.48;;;8.10;99.90;;;;;;5031098;28;20051;-70
2022/04/25 00:26:39;;;;;;;17.45;12.75;;;8.10;99.90;;;;;;5065533;28;20040;-71
2022/04/25 00:29:04;;;;;;;22.65;13.32;;;8.10;99.90;;;;;;5052476;28;20048;-71
2022/04/25 00:31:33;;;;;;;20.40;12.32;;;8.00;99.90;;;;;;5030884;28;20064;-71
2022/04/25 00:33:59;;;;;;;21.42;13.15;;;8.00;99.90;;;;;;5047644;28;20037;-71
2022/04/25 00:36:24;;;;;;;22.60;12.32;;;8.00;99.90;;;;;;5044138;28;20057;-71
2022/04/25 00:38:50;;;;;;;22.25;13.38;;;8.00;99.90;;;;;;5066818;28;20489;-71
2022/04/25 00:41:16;;;;;;;19.77;12.63;;;8.00;99.90;;;;;;5046823;28;20036;-71
2022/04/25 00:43:45;;;;;;;19.15;12.85;;;8.00;99.90;;;;;;5035534;28;20486;-71
2022/04/25 00:46:22;;;;;;;19.35;13.23;;;8.00;99.90;;;;;;5042067;28;20040;-71
2022/04/25 00:48:48;;;;;;;17.45;12.80;;;7.90;99.90;;;;;;5051573;28;20044;-71
2022/04/25 00:51:15;;;;;;;20.90;13.70;;;7.90;99.90;;;;;;5048548;28;20506;-71
2022/04/25 00:53:40;;;;;;;17.85;12.73;;;7.90;99.90;;;;;;5067625;28;20549;-71
2022/04/25 00:56:16;;;;;;;19.67;13.32;;;8.00;99.90;;;;;;5040890;28;20112;-71
2022/04/25 00:58:46;;;;;;;21.55;14.00;;;8.00;99.90;;;;;;5067826;28;20032;-71
2022/04/25 01:01:13;;;;;;;19.63;14.18;;;7.90;99.90;;;;;;5064203;28;20048;-71
2022/04/25 01:03:39;;;;;;;25.33;15.48;;;7.90;99.90;;;;;;5039233;28;20078;-71
2022/04/25 01:06:05;;;;;;;23.35;14.30;;;7.90;99.90;;;;;;5050725;28;21316;-71
2022/04/25 01:08:37;;;;;;;27.75;15.55;;;7.90;99.90;;;;;;5049957;28;20033;-71
2022/04/25 01:11:04;;;;;;;23.88;14.55;;;7.90;99.90;;;;;;5062619;28;20040;-70
2022/04/25 01:13:30;;;;;;;22.38;14.02;;;7.90;99.90;;;;;;5050146;28;20129;-71
2022/04/25 01:15:56;;;;;;;22.75;13.88;;;7.80;99.90;;;;;;5051030;28;20060;-71
2022/04/25 01:18:22;;;;;;;22.60;13.43;;;7.80;99.90;;;;;;5064677;28;20040;-71
2022/04/25 01:20:52;;;;;;;23.50;13.52;;;7.70;99.90;;;;;;5048725;28;20068;-71
2022/04/25 01:28:55;;;;;;;27.17;13.77;;;7.60;99.90;;;;;;5055745;28;20056;-71
2022/04/25 01:31:21;;;;;;;23.17;13.10;;;7.60;99.90;;;;;;5065305;28;20056;-71
2022/04/25 01:33:47;;;;;;;22.45;13.43;;;7.50;99.90;;;;;;5066687;28;20112;-71
2022/04/25 01:36:12;;;;;;;21.15;12.52;;;7.50;99.90;;;;;;5038718;28;20052;-71
2022/04/25 01:38:38;;;;;;;23.13;13.32;;;7.50;99.90;;;;;;5054974;28;20086;-71
2022/04/25 01:41:04;;;;;;;27.00;15.05;;;7.40;99.90;;;;;;5027966;28;20040;-71
2022/04/25 01:43:36;;;;;;;22.45;14.35;;;7.40;99.90;;;;;;5043502;28;20052;-71
2022/04/25 01:46:03;;;;;;;23.52;13.98;;;7.40;99.90;;;;;;5041512;28;20434;-71
2022/04/25 01:48:29;;;;;;;22.60;14.48;;;7.40;99.90;;;;;;5064753;28;20251;-71
2022/04/25 01:50:55;;;;;;;25.63;15.10;;;7.30;99.90;;;;;;5048818;28;20041;-71
2022/04/25 01:53:21;;;;;;;25.48;14.70;;;7.30;99.90;;;;;;5044912;28;20028;-71
2022/04/25 01:55:47;;;;;;;25.52;14.80;;;7.30;99.90;;;;;;5066112;28;20393;-71
2022/04/25 01:58:13;;;;;;;21.73;13.43;;;7.20;99.90;;;;;;5040741;28;20494;-71
2022/04/25 02:00:39;;;;;;;28.05;15.80;;;7.20;99.90;;;;;;5025149;28;20041;-70
2022/04/25 02:03:05;;;;;;;25.70;14.40;;;7.20;99.90;;;;;;5064679;28;20048;-71
2022/04/25 02:05:34;;;;;;;27.63;14.63;;;7.10;99.90;;;;;;5043758;28;20032;-71
2022/04/25 02:07:59;;;;;;;24.55;15.13;;;7.10;99.90;;;;;;5053528;28;20053;-71
2022/04/25 02:10:27;;;;;;;24.52;14.68;;;7.00;99.90;;;;;;5082348;28;20397;-71
2022/04/25 02:12:53;;;;;;;26.45;15.93;;;7.00;99.90;;;;;;5068508;28;20482;-70
2022/04/25 02:15:19;;;;;;;22.17;15.40;;;7.10;99.90;;;;;;5065784;28;20028;-71
2022/04/25 02:17:45;;;;;;;21.33;14.50;;;7.10;99.90;;;;;;5054383;28;20028;-71
2022/04/25 02:20:12;;;;;;;25.92;14.73;;;7.10;99.90;;;;;;5070072;28;20477;-71
2022/04/25 02:22:38;;;;;;;27.05;15.23;;;7.10;99.90;;;;;;5047196;28;20139;-71
2022/04/25 02:25:04;;;;;;;26.55;14.32;;;7.10;99.90;;;;;;5045688;28;20525;-71
2022/04/25 02:27:30;;;;;;;25.65;15.30;;;7.10;99.90;;;;;;5051988;28;20785;-71
2022/04/25 02:29:58;;;;;;;22.50;14.10;;;7.10;99.90;;;;;;5042612;28;20040;-71
2022/04/25 02:32:28;;;;;;;26.75;14.55;;;7.10;99.90;;;;;;5059778;28;20401;-70
2022/04/25 02:34:54;;;;;;;29.40;14.07;;;7.00;99.90;;;;;;5066544;28;20206;-70
2022/04/25 02:37:26;;;;;;;23.88;15.48;;;7.00;99.90;;;;;;5062305;28;20036;-71
2022/04/25 02:39:52;;;;;;;29.98;14.30;;;7.00;99.90;;;;;;5035231;28;20028;-71
2022/04/25 02:42:18;;;;;;;23.55;14.75;;;7.00;99.90;;;;;;5057910;28;20513;-71
2022/04/25 02:44:56;;;;;;;23.55;13.70;;;7.00;99.90;;;;;;5038943;28;20036;-71
2022/04/25 02:47:21;;;;;;;22.40;14.00;;;7.00;99.90;;;;;;5057062;28;20045;-69
2022/04/25 02:49:47;;;;;;;20.67;13.20;;;7.00;99.90;;;;;;5068618;28;20043;-71
2022/04/25 02:52:13;;;;;;;23.85;13.48;;;7.00;99.90;;;;;;5066233;28;20039;-71
2022/04/25 02:54:38;;;;;;;20.23;14.18;;;7.00;99.90;;;;;;5068392;28;20074;-70
2022/04/25 02:57:04;;;;;;;31.75;13.45;;;6.90;99.90;;;;;;5028879;28;20466;-70
2022/04/25 02:59:30;;;;;;;25.88;13.50;;;6.90;99.90;;;;;;5064464;28;20120;-71
2022/04/25 03:01:55;;;;;;;23.73;13.25;;;6.90;99.90;;;;;;5062274;28;20047;-71
2022/04/25 03:04:21;;;;;;;25.30;13.65;;;6.90;99.90;;;;;;5030107;28;20127;-71
2022/04/25 03:06:47;;;;;;;26.90;14.57;;;6.90;99.90;;;;;;5046170;28;20037;-70
2022/04/25 03:09:13;;;;;;;21.40;13.55;;;6.90;99.90;;;;;;5032374;28;20130;-70
2022/04/25 03:11:38;;;;;;;24.08;13.98;;;6.80;99.90;;;;;;5064547;28;20040;-70
2022/04/25 03:14:04;;;;;;;19.73;13.32;;;6.80;99.90;;;;;;5035526;28;20517;-70
2022/04/25 03:16:30;;;;;;;22.80;14.30;;;6.80;99.90;;;;;;5051436;28;20153;-70
2022/04/25 03:18:58;;;;;;;22.20;14.05;;;6.80;99.90;;;;;;5040610;28;20028;-70
2022/04/25 03:21:24;;;;;;;23.33;14.18;;;6.80;99.90;;;;;;5052839;28;20310;-70
2022/04/25 03:23:53;;;;;;;27.08;14.32;;;6.80;99.90;;;;;;5069502;28;20088;-70
2022/04/25 03:26:19;;;;;;;23.42;14.05;;;6.80;99.90;;;;;;5066988;28;20044;-70
2022/04/25 03:28:45;;;;;;;24.60;13.60;;;6.70;99.90;;;;;;5065333;28;20036;-70
2022/04/25 03:31:10;;;;;;;21.45;14.35;;;6.80;99.90;;;;;;5068139;28;20090;-70
2022/04/25 03:33:36;;;;;;;24.75;14.07;;;6.80;99.90;;;;;;5035471;28;20037;-69
2022/04/25 03:36:03;;;;;;;23.50;13.57;;;6.80;99.90;;;;;;5064004;28;20045;-70
2022/04/25 03:38:30;;;;;;;20.45;12.63;;;6.80;99.90;;;;;;5043047;28;20498;-70
2022/04/25 03:40:56;;;;;;;24.92;13.77;;;6.70;99.90;;;;;;5048350;28;20044;-70
2022/04/25 03:43:23;;;;;;;24.20;13.88;;;6.70;99.90;;;;;;5052960;28;20044;-70
2022/04/25 03:45:49;;;;;;;23.77;13.75;;;6.70;99.90;;;;;;5059797;28;20032;-70
2022/04/25 03:48:15;;;;;;;27.65;13.48;;;6.80;99.90;;;;;;5056627;28;20478;-70
2022/04/25 03:50:40;;;;;;;21.05;13.35;;;6.80;99.90;;;;;;5066798;28;20036;-70
2022/04/25 03:53:08;;;;;;;22.80;12.63;;;6.80;99.90;;;;;;5068315;28;20036;-70
2022/04/25 03:58:19;;;;;;;22.70;14.00;;;6.70;99.90;;;;;;5066797;28;20045;-70
2022/04/25 04:00:44;;;;;;;24.27;13.75;;;6.70;99.90;;;;;;5039589;28;20047;-70
2022/04/25 04:03:14;;;;;;;21.00;13.27;;;6.70;99.90;;;;;;5038503;28;20072;-70
2022/04/25 04:05:42;;;;;;;22.05;12.55;;;6.70;99.90;;;;;;5050064;28;20359;-70
2022/04/25 04:08:09;;;;;;;19.92;12.77;;;6.70;99.90;;;;;;5036708;28;20048;-70
2022/04/25 04:10:34;;;;;;;21.48;12.73;;;6.70;99.90;;;;;;5062425;28;20044;-70
2022/04/25 04:13:00;;;;;;;24.45;13.45;;;6.80;99.90;;;;;;5053280;28;20402;-70
2022/04/25 04:15:26;;;;;;;22.80;14.40;;;6.80;99.90;;;;;;5047284;28;20116;-70
2022/04/25 04:17:54;;;;;;;18.92;12.98;;;6.80;99.90;;;;;;5057383;28;20064;-70
2022/04/25 04:20:20;;;;;;;26.67;13.43;;;6.70;99.90;;;;;;5041728;28;20044;-70
2022/04/25 04:22:49;;;;;;;25.40;13.95;;;6.80;99.90;;;;;;5055943;28;20085;-70
2022/04/25 04:25:15;;;;;;;23.67;13.43;;;6.80;99.90;;;;;;5048267;28;20127;-70
2022/04/25 04:27:42;;;;;;;16.85;11.85;;;6.80;99.90;;;;;;5064419;28;20178;-70
2022/04/25 04:30:10;;;;;;;23.27;12.85;;;6.80;99.90;;;;;;5052068;28;20049;-70
2022/04/25 04:32:40;;;;;;;21.77;12.90;;;6.70;99.90;;;;;;5063024;28;20529;-70
2022/04/25 04:35:13;;;;;;;28.17;12.80;;;6.80;99.90;;;;;;5059604;28;20068;-70
2022/04/25 04:37:41;;;;;;;25.40;12.98;;;6.80;99.90;;;;;;5052652;28;20043;-70
2022/04/25 04:40:29;;;;;;;22.77;12.75;;;6.80;99.90;;;;;;5044574;28;20058;-70
2022/04/25 04:42:55;;;;;;;19.98;13.15;;;6.80;99.90;;;;;;5044917;28;20610;-70
2022/04/25 04:45:22;;;;;;;21.42;12.45;;;6.80;99.90;;;;;;5051189;28;20421;-70
2022/04/25 04:47:47;;;;;;;19.80;12.23;;;6.80;99.90;;;;;;5071732;28;20119;-70
2022/04/25 04:50:14;;;;;;;20.83;12.35;;;6.80;99.90;;;;;;5044216;28;20157;-70
2022/04/25 04:52:51;;;;;;;25.90;12.63;;;6.80;99.90;;;;;;5070689;28;20851;-70
2022/04/25 04:55:17;;;;;;;22.15;13.07;;;6.80;99.90;;;;;;5067447;28;20036;-70
2022/04/25 04:57:43;;;;;;;21.60;12.52;;;6.80;99.90;;;;;;5052166;28;20051;-69
2022/04/25 05:00:13;;;;;;;17.52;11.27;;;6.80;99.90;;;;;;5052859;28;20152;-70
2022/04/25 05:02:39;;;;;;;21.17;12.80;;;6.80;99.90;;;;;;5066825;28;20040;-70
2022/04/25 05:05:08;;;;;;;19.13;11.55;;;6.80;99.90;;;;;;5068892;28;20045;-70
2022/04/25 05:07:37;;;;;;;18.88;11.55;;;6.90;99.90;;;;;;5041896;28;20063;-70
2022/04/25 05:10:04;;;;;;;23.65;11.95;;;6.90;99.90;;;;;;5062338;28;20032;-70
2022/04/25 05:12:30;;;;;;;22.70;11.80;;;6.90;99.90;;;;;;5027922;28;20075;-70
2022/04/25 05:15:03;;;;;;;20.25;11.63;;;6.90;99.90;;;;;;5060007;28;20706;-70
2022/04/25 05:17:31;;;;;;;;;;;6.90;99.90;;;;;;5061087;28;20036;-70
2022/04/25 05:19:57;;;;;;;18.98;11.07;;;6.90;99.90;;;;;;5035561;28;20077;-70
2022/04/25 05:22:22;;;;;;;20.85;10.98;;;7.00;99.90;;;;;;5071379;28;20040;-70
2022/04/25 05:24:48;;;;;;;22.60;11.60;;;7.00;99.90;;;;;;5058157;28;20048;-70
2022/04/25 05:27:14;;;;;;;23.15;11.40;;;7.00;99.90;;;;;;5059598;28;20064;-70
2022/04/25 05:29:40;;;;;;;17.95;10.98;;;7.00;99.90;;;;;;5049670;28;20520;-69
2022/04/25 05:32:06;;;;;;;19.17;10.65;;;7.00;99.90;;;;;;5065584;28;20050;-69
2022/04/25 05:34:32;;;;;;;17.23;9.98;;;7.10;99.90;;;;;;5073203;28;20037;-70
2022/04/25 05:36:57;;;;;;;15.73;10.25;;;7.00;99.90;;;;;;5086174;28;20034;-70
2022/04/25 05:39:23;;;;;;;19.73;10.90;;;7.10;99.90;;;;;;5091065;28;20608;-69
2022/04/25 05:41:49;;;;;;;18.88;10.48;;;7.10;99.90;;;;;;5078064;28;20101;-69
2022/04/25 05:44:15;;;;;;;20.25;11.43;;;7.10;99.90;;;;;;5082474;28;20042;-69
2022/04/25 05:46:40;;;;;;;15.65;10.48;;;7.10;99.90;;;;;;5055128;28;20081;-69
2022/04/25 05:52:00;;;;;;;20.77;10.57;;;7.20;99.90;;;;;;5090267;28;20468;-69
2022/04/25 05:54:26;;;;;;;19.23;10.43;;;7.20;99.90;;;;;;5058833;28;20419;-69
2022/04/25 05:56:52;;;;;;;21.92;11.07;;;7.20;99.90;;;;;;5067248;28;20622;-69
2022/04/25 05:59:19;;;;;;;20.73;10.85;;;7.20;99.90;;;;;;5074187;28;20586;-70
2022/04/25 06:01:45;;;;;;;23.33;11.02;;;7.20;99.90;;;;;;5066932;28;20071;-69
2022/04/25 06:04:10;;;;;;;17.73;11.13;;;7.20;99.90;;;;;;5092576;28;20051;-69
2022/04/25 06:06:36;;;;;;;19.83;11.27;;;7.20;99.90;;;;;;5056421;28;20054;-69
2022/04/25 06:09:05;;;;;;;16.88;11.10;;;7.20;99.90;;;;;;5056091;28;20166;-69
2022/04/25 06:11:32;;;;;;;21.10;11.45;;;7.20;99.90;;;;;;5085485;28;20040;-69
2022/04/25 06:13:58;;;;;;;17.77;10.75;;;7.30;99.90;;;;;;5056965;28;20105;-69
2022/04/25 06:16:24;;;;;;;19.10;11.18;;;7.30;99.90;;;;;;5084370;28;20055;-69
2022/04/25 06:18:49;;;;;;;21.60;10.85;;;7.30;99.90;;;;;;5067103;28;20029;-69
2022/04/25 06:21:15;;;;;;;18.60;12.07;;;7.40;99.90;;;;;;5056961;28;20333;-69
2022/04/25 06:23:41;;;;;;;16.75;11.60;;;7.40;99.90;;;;;;5052857;28;20072;-69
2022/04/25 06:26:07;;;;;;;19.50;11.13;;;7.50;99.90;;;;;;5052509;28;20050;-69
2022/04/25 06:28:32;;;;;;;19.50;11.10;;;7.50;99.90;;;;;;5068013;28;20092;-69
2022/04/25 06:30:58;;;;;;;19.98;11.68;;;7.50;99.90;;;;;;5065010;28;20443;-69
2022/04/25 06:33:25;;;;;;;22.83;12.30;;;7.50;99.90;;;;;;5065588;28;20574;-69
2022/04/25 06:35:51;;;;;;;21.25;11.90;;;7.40;99.90;;;;;;5085998;28;20052;-69
2022/04/25 06:38:21;;;;;;;25.52;13.15;;;7.40;99.90;;;;;;5070134;28;20137;-69
2022/04/25 06:40:47;;;;;;;19.75;12.18;;;7.40;99.90;;;;;;5065200;28;20040;-69
2022/04/25 06:43:14;;;;;;;19.27;11.55;;;7.50;99.90;;;;;;5068807;28;20050;-69
2022/04/25 06:45:41;;;;;;;23.52;11.98;;;7.50;99.90;;;;;;5073884;28;20532;-69
2022/04/25 06:48:07;;;;;;;19.00;11.35;;;7.40;99.90;;;;;;5054163;28;20127;-69
2022/04/25 06:50:32;;;;;;;21.73;12.32;;;7.50;99.90;;;;;;5054349;28;20174;-69
2022/04/25 06:52:58;;;;;;;22.85;12.98;;;7.40;99.90;;;;;;5057712;28;20039;-69
2022/04/25 06:55:24;;;;;;;25.02;13.05;;;7.50;99.90;;;;;;5054279;28;20032;-69
2022/04/25 06:57:52;;;;;;;21.08;12.60;;;7.50;99.90;;;;;;5055614;28;20494;-69
2022/04/25 07:00:19;;;;;;;21.42;12.52;;;7.50;99.90;;;;;;5084247;28;20048;-69
2022/04/25 07:02:45;;;;;;;24.45;12.93;;;7.50;99.90;;;;;;5085551;28;20736;-69
2022/04/25 07:05:11;;;;;;;20.95;12.65;;;7.50;99.90;;;;;;5059965;28;20036;-69
2022/04/25 07:07:37;;;;;;;26.48;13.75;;;7.40;99.90;;;;;;5060977;28;20040;-69
2022/04/25 07:10:06;;;;;;;20.45;13.32;;;7.50;99.90;;;;;;5041709;28;20039;-69
2022/04/25 07:12:32;;;;;;;22.88;13.98;;;7.50;99.90;;;;;;5046610;28;20041;-69
2022/04/25 07:15:00;;;;;;;24.23;13.48;;;7.50;99.90;;;;;;5039461;28;20508;-69
2022/04/25 07:17:26;;;;;;;26.25;14.23;;;7.40;99.90;;;;;;5073657;28;20047;-70
2022/04/25 07:19:52;;;;;;;25.05;15.25;;;7.40;99.90;;;;;;5078261;28;20393;-69
2022/04/25 07:30:34;;;;;;;27.15;15.18;;;7.40;99.90;;;;;;5052843;28;20497;-69
2022/04/25 07:33:02;;;;;;;25.70;15.00;;;7.40;99.90;;;;;;5080366;28;20409;-70
2022/04/25 07:35:29;;;;;;;24.63;14.27;;;7.40;99.90;;;;;;5072825;28;20119;-69
2022/04/25 07:37:57;;;;;;;25.15;15.27;;;7.40;99.90;;;;;;5077176;28;20444;-69
2022/04/25 07:40:24;;;;;;;24.27;14.40;;;7.40;99.90;;;;;;5057862;28;20047;-70
2022/04/25 07:42:50;;;;;;;25.15;14.05;;;7.40;99.90;;;;;;5056833;28;20564;-69
2022/04/25 07:45:15;;;;;;;27.50;13.52;;;7.40;99.90;;;;;;5058891;28;20127;-70
2022/04/25 07:47:43;;;;;;;23.48;15.00;;;7.30;99.90;;;;;;5078578;28;20033;-70
2022/04/25 07:50:12;;;;;;;21.85;14.57;;;7.30;99.90;;;;;;5069485;28;20483;-70
2022/04/25 07:52:39;;;;;;;23.60;15.45;;;7.30;99.90;;;;;;5052071;28;20044;-70
2022/04/25 07:55:07;;;;;;;23.50;13.77;;;7.20;99.90;;;;;;5069818;28;20064;-69
2022/04/25 07:57:33;;;;;;;21.83;13.93;;;7.30;99.90;;;;;;5038326;28;20036;-70
2022/04/25 07:59:58;;;;;;;23.77;14.05;;;7.30;99.90;;;;;;5055203;28;20078;-70
2022/04/25 08:02:25;;;;;;;28.77;14.43;;;7.30;99.90;;;;;;5052251;28;20072;-69
2022/04/25 08:04:50;;;;;;;27.10;16.02;;;7.30;99.90;;;;;;5052377;28;20037;-69
2022/04/25 08:07:16;;;;;;;21.15;14.15;;;7.30;99.90;;;;;;5063879;28;20085;-70
2022/04/25 08:09:43;;;;;;;21.40;14.00;;;7.30;99.90;;;;;;5067723;28;20095;-70
2022/04/25 08:20:26;;;;;;;26.08;14.60;;;7.40;99.90;;;;;;5071719;28;20052;-69
2022/04/25 08:22:52;;;;;;;22.77;13.05;;;7.50;99.90;;;;;;5055558;28;20039;-70
2022/04/25 08:25:18;;;;;;;23.30;12.80;;;7.50;99.90;;;;;;5055789;28;20036;-69
2022/04/25 08:27:44;;;;;;;24.73;12.95;;;7.50;99.90;;;;;;5071935;28;20048;-69
2022/04/25 08:30:12;;;;;;;24.08;13.02;;;7.60;99.90;;;;;;5036342;28;20037;-69
2022/04/25 08:32:38;;;;;;;21.90;13.48;;;7.60;99.90;;;;;;5063802;28;20034;-69
2022/04/25 08:35:04;;;;;;;20.70;13.27;;;7.60;99.90;;;;;;5041156;28;20436;-69
2022/04/25 08:37:30;;;;;;;18.85;11.70;;;7.60;99.90;;;;;;5072513;28;20040;-70
2022/04/25 08:39:56;;;;;;;26.13;12.90;;;7.70;99.90;;;;;;5072519;28;20036;-69
2022/04/25 08:42:22;;;;;;;23.02;13.27;;;7.70;99.90;;;;;;5071760;28;20382;-69
2022/04/25 08:44:57;;;;;;;22.35;13.10;;;7.80;99.90;;;;;;5057504;28;20035;-69
2022/04/25 08:47:28;;;;;;;21.70;13.20;;;7.90;99.90;;;;;;5072332;28;20051;-69
2022/04/25 08:49:58;;;;;;;21.02;12.57;;;7.80;99.90;;;;;;5052681;28;20039;-69
2022/04/25 08:52:27;;;;;;;20.42;12.40;;;7.90;99.90;;;;;;5063598;28;20569;-69
2022/04/25 08:54:57;;;;;;;21.77;12.02;;;7.90;99.90;;;;;;5036805;28;20417;-70
2022/04/25 08:57:31;;;;;;;25.83;12.23;;;7.90;99.90;;;;;;5046306;28;20047;-69
2022/04/25 08:59:59;;;;;;;18.08;11.48;;;8.00;99.90;;;;;;5053944;28;20313;-70
2022/04/25 09:02:25;;;;;;;22.15;13.00;;;8.00;99.90;;;;;;5035343;28;20167;-70
2022/04/25 09:04:51;;;;;;;18.65;11.80;;;8.00;99.90;;;;;;5085705;28;20036;-69
2022/04/25 09:07:17;;;;;;;21.77;11.65;;;8.10;99.90;;;;;;5030242;28;20041;-69
2022/04/25 09:09:43;;;;;;;16.83;11.88;;;8.20;99.90;;;;;;5045896;28;20137;-69
2022/04/25 09:12:11;;;;;;;20.10;12.00;;;8.20;99.90;;;;;;5062838;28;20041;-69
2022/04/25 09:14:47;;;;;;;21.52;11.85;;;8.30;99.90;;;;;;5065649;28;20047;-69
2022/04/25 09:17:16;;;;;;;20.35;11.65;;;8.30;99.90;;;;;;5050870;28;20072;-70
2022/04/25 09:19:42;;;;;;;17.77;10.95;;;8.40;99.90;;;;;;5039732;28;20024;-69
2022/04/25 09:22:10;;;;;;;18.25;11.30;;;8.00;99.90;;;;;;5069752;28;20055;-69
2022/04/25 09:24:46;;;;;;;19.30;11.15;;;8.40;99.90;;;;;;5089518;28;20040;-70
2022/04/25 09:27:19;;;;;;;17.23;10.20;;;8.40;99.90;;;;;;5071464;28;20036;-69
2022/04/25 09:29:48;;;;;;;16.35;11.18;;;8.30;99.90;;;;;;5057412;28;20059;-70
2022/04/25 09:32:16;;;;;;;15.50;10.52;;;8.30;99.90;;;;;;5079297;28;20108;-69
2022/04/25 09:35:05;;;;;;;14.00;10.02;;;8.40;99.90;;;;;;5051686;28;20071;-69
2022/04/25 09:37:47;;;;;;;17.88;10.18;;;8.40;99.90;;;;;;5057633;28;20055;-70
2022/04/25 09:40:19;;;;;;;16.23;10.83;;;8.50;99.90;;;;;;5071465;28;20040;-69
2022/04/25 09:42:46;;;;;;;16.47;11.10;;;8.60;99.90;;;;;;5071270;28;20901;-70
2022/04/25 09:45:12;;;;;;;13.50;10.10;;;8.50;99.90;;;;;;5024801;28;20028;-69
2022/04/25 09:47:38;;;;;;;14.45;10.35;;;8.50;99.90;;;;;;5062287;28;20306;-70
2022/04/25 09:50:12;;;;;;;14.68;9.52;;;8.50;99.90;;;;;;5056883;28;20036;-70
2022/04/25 09:53:00;;;;;;;14.07;9.60;;;8.50;99.90;;;;;;5071604;28;20075;-70
2022/04/25 09:55:29;;;;;;;15.50;9.70;;;8.50;99.90;;;;;;5069275;28;20568;-70
2022/04/25 09:57:55;;;;;;;17.42;9.90;;;8.50;99.90;;;;;;5084093;28;20043;-70
2022/04/25 10:00:38;;;;;;;13.63;10.32;;;8.50;99.90;;;;;;5071591;28;20319;-69
2022/04/25 10:03:08;;;;;;;16.38;10.20;;;8.60;99.90;;;;;;5056840;28;20051;-69
2022/04/25 10:05:42;;;;;;;16.13;9.98;;;8.60;99.90;;;;;;5063723;28;20474;-69
2022/04/25 10:08:10;;;;;;;16.70;11.43;;;8.60;99.90;;;;;;5081720;28;20055;-69
2022/04/25 10:10:59;;;;;;;18.33;11.15;;;8.70;99.90;;;;;;5038578;28;20044;-69
2022/04/25 10:13:26;;;;;;;14.35;10.70;;;8.80;99.90;;;;;;5080113;28;20083;-69
2022/04/25 10:15:52;;;;;;;14.77;11.13;;;8.80;99.90;;;;;;5045865;28;20040;-70
2022/04/25 10:18:18;;;;;;;14.93;10.75;;;8.80;99.90;;;;;;5051450;28;20505;-70
2022/04/25 10:20:46;;;;;;;17.17;10.70;;;8.90;99.90;;;;;;5042361;28;20048;-69
2022/04/25 10:23:13;;;;;;;20.00;11.73;;;8.90;99.90;;;;;;5073169;28;20063;-70
2022/04/25 10:25:46;;;;;;;18.30;11.80;;;9.00;99.90;;;;;;5059740;28;20485;-70
2022/04/25 10:28:13;;;;;;;;;;;9.00;99.90;;;;;;5085551;28;20040;-70
2022/04/25 10:30:45;;;;;;;15.70;9.82;;;9.10;99.90;;;;;;5063263;28;20359;-70
2022/04/25 10:33:22;;;;;;;16.50;10.52;;;9.10;99.90;;;;;;5061367;28;20040;-70
2022/04/25 10:35:50;;;;;;;16.45;10.52;;;9.00;99.90;;;;;;5056576;28;20067;-70
2022/04/25 10:38:48;;;;;;;17.67;10.93;;;9.00;99.90;;;;;;5061244;28;20461;-69
2022/04/25 10:44:17;;;;;;;17.17;10.43;;;9.00;99.90;;;;;;5081701;28;20412;-70
2022/04/25 10:47:12;;;;;;;16.08;10.75;;;9.00;99.90;;;;;;5065491;28;20366;-69
2022/04/25 10:49:53;;;;;;;15.10;10.10;;;9.10;99.90;;;;;;5063360;28;20044;-70
2022/04/25 10:52:54;;;;;;;17.33;11.05;;;9.10;99.90;;;;;;5079844;28;20052;-69
2022/04/25 10:55:55;;;;;;;16.08;10.13;;;9.30;99.90;;;;;;5075094;28;20052;-70
2022/04/25 10:58:16;;;;;;;15.35;9.55;;;9.40;99.90;;;;;;5056646;28;20497;-70
2022/04/25 11:00:41;;;;;;;16.23;9.50;;;9.40;99.90;;;;;;5060591;28;20059;-70
2022/04/25 11:03:09;;;;;;;17.15;10.10;;;9.50;99.90;;;;;;5055981;28;20036;-70
2022/04/25 11:05:35;;;;;;;13.32;8.77;;;9.60;99.90;;;;;;5075917;28;20055;-70
2022/04/25 11:08:19;;;;;;;16.92;9.85;;;9.80;99.90;;;;;;5061058;28;20094;-69
2022/04/25 11:10:52;;;;;;;16.67;9.88;;;9.80;99.90;;;;;;5076227;28;20101;-69
2022/04/25 11:13:22;;;;;;;14.10;9.68;;;9.90;99.90;;;;;;5056015;28;20032;-69
2022/04/25 11:15:53;;;;;;;14.15;9.48;;;9.90;99.90;;;;;;5058218;28;20051;-69
2022/04/25 11:18:33;;;;;;;15.23;9.25;;;10.00;99.90;;;;;;5073562;28;20046;-69
2022/04/25 11:21:08;;;;;;;15.13;8.85;;;10.00;99.90;;;;;;5055727;28;20051;-70
2022/04/25 11:23:35;;;;;;;12.90;9.02;;;9.90;99.90;;;;;;5074649;28;20055;-69
2022/04/25 11:26:05;;;;;;;17.13;9.10;;;9.90;99.90;;;;;;5057632;28;20405;-69
2022/04/25 11:28:33;;;;;;;11.27;8.45;;;9.80;99.90;;;;;;5040626;28;20043;-69
2022/04/25 11:31:14;;;;;;;15.23;9.48;;;9.80;99.90;;;;;;5055003;28;20052;-69
2022/04/25 11:33:44;;;;;;;15.48;9.50;;;9.90;99.90;;;;;;5079627;28;20044;-69
2022/04/25 11:36:11;;;;;;;12.88;9.23;;;9.90;99.90;;;;;;5058277;28;20307;-69
2022/04/25 11:41:28;;;;;;;16.52;9.32;;;10.00;99.90;;;;;;5045143;28;20052;-69
2022/04/25 11:43:54;;;;;;;14.60;9.02;;;10.00;99.90;;;;;;5046205;28;20052;-69
2022/04/25 11:46:20;;;;;;;12.45;8.77;;;10.10;99.90;;;;;;5063072;28;20384;-70
2022/04/25 11:48:55;;;;;;;14.43;9.20;;;10.20;99.90;;;;;;5044136;28;20066;-70
2022/04/25 11:51:34;;;;;;;12.77;9.32;;;10.30;99.90;;;;;;5043315;28;20092;-70
2022/04/25 11:54:04;;;;;;;13.65;9.35;;;10.40;99.90;;;;;;5058119;28;20556;-69
2022/04/25 11:56:31;;;;;;;14.85;9.85;;;10.70;99.90;;;;;;5059611;28;20086;-70
2022/04/25 11:59:07;;;;;;;16.38;10.07;;;10.80;99.90;;;;;;5078046;28;20032;-69
2022/04/25 12:01:40;;;;;;;13.35;9.57;;;11.00;99.90;;;;;;5059087;28;20567;-70
2022/04/25 12:04:35;;;;;;;13.15;9.15;;;11.10;99.90;;;;;;5072688;28;20036;-70
2022/04/25 12:07:06;;;;;;;13.35;8.80;;;11.40;99.90;;;;;;5032336;28;20509;-70
2022/04/25 12:15:43;;;;;;;16.77;10.85;;;12.60;99.90;;;;;;5066326;28;20409;-70
2022/04/25 12:18:19;;;;;;;12.25;9.38;;;12.60;99.90;;;;;;5065413;28;20063;-70
2022/04/25 12:20:50;;;;;;;17.45;10.27;;;12.50;99.90;;;;;;5064147;28;20044;-70
2022/04/25 12:23:24;;;;;;;13.57;9.93;;;12.20;99.90;;;;;;5087896;28;20040;-70
2022/04/25 12:25:51;;;;;;;15.82;11.25;;;12.10;99.90;;;;;;5072614;28;20043;-70
2022/04/25 12:28:22;;;;;;;15.60;11.18;;;12.00;99.90;;;;;;5052097;28;20066;-69
2022/04/25 12:30:57;;;;;;;13.43;10.57;;;12.00;99.90;;;;;;5079329;28;20044;-69
2022/04/25 12:33:32;;;;;;;15.40;10.20;;;11.90;99.90;;;;;;5074972;28;20123;-70
2022/04/25 12:36:10;;;;;;;16.05;10.93;;;11.70;99.90;;;;;;5069537;28;20056;-70
2022/04/25 12:38:40;;;;;;;15.65;10.27;;;11.60;99.90;;;;;;5072237;28;20041;-69
2022/04/25 12:41:07;;;;;;;13.75;11.05;;;11.40;99.90;;;;;;5054799;28;20139;-70
2022/04/25 12:43:53;;;;;;;15.95;10.95;;;11.30;99.90;;;;;;5069693;28;20040;-69
2022/04/25 12:46:34;;;;;;;16.20;11.23;;;11.10;99.90;;;;;;5038514;28;20402;-70
2022/04/25 12:49:07;;;;;;;15.15;10.82;;;11.00;99.90;;;;;;5069482;28;20040;-70
2022/04/25 12:51:45;;;;;;;17.65;10.98;;;11.10;99.90;;;;;;5053243;28;20089;-70
2022/04/25 12:54:37;;;;;;;16.35;11.60;;;10.90;99.90;;;;;;5053254;28;20093;-70
2022/04/25 12:57:10;;;;;;;17.27;11.25;;;11.00;99.90;;;;;;5071344;28;20043;-70
2022/04/25 12:59:36;;;;;;;16.73;12.02;;;10.90;99.90;;;;;;5059866;28;20048;-70
2022/04/25 13:02:09;;;;;;;16.10;11.88;;;11.00;99.90;;;;;;5064051;28;20036;-70
2022/04/25 13:04:54;;;;;;;22.75;13.10;;;11.00;99.90;;;;;;5069758;28;20055;-70
2022/04/25 13:07:28;;;;;;;15.60;11.32;;;11.00;99.90;;;;;;5056141;28;20047;-70
2022/04/25 13:09:56;;;;;;;19.05;12.20;;;11.10;99.90;;;;;;5058855;28;20045;-70
2022/04/25 13:12:24;;;;;;;19.38;11.70;;;11.00;99.90;;;;;;5059949;28;20865;-70
2022/04/25 13:14:50;;;;;;;16.80;11.88;;;10.90;99.90;;;;;;5064987;28;20051;-70
2022/04/25 13:17:16;;;;;;;14.70;11.93;;;10.90;99.90;;;;;;5022885;28;20036;-69
2022/04/25 13:19:43;;;;;;;17.58;12.48;;;10.90;99.90;;;;;;5056222;28;20119;-70
2022/04/25 13:22:09;;;;;;;18.55;11.75;;;10.90;99.90;;;;;;5027094;28;20378;-69
2022/04/25 13:24:37;;;;;;;17.58;12.88;;;10.80;99.90;;;;;;5042686;28;20044;-70
2022/04/25 13:27:06;;;;;;;18.60;13.40;;;10.80;99.90;;;;;;5042231;28;20059;-70